Luziania, Brazil
Current Conditions -  °F | °C
As of 1:00 AM on Wednesday 22 Oct 2014 (Local Time) from SBBR Reporting Station
Thunderstorm Thunderstorm  
Wind Chill: 70°   Ceiling: 10000
Heat Index: 70°   Visibility: 6mi
Dew Point: 63°   Wind: 2mph
Humidity: 78%   Direction: 150°SSE
Pressure: NA   Gusts: NA
Location:  16.25°S, 47.92°W
Report Text: SBBR 220300Z 15002KT 9999 VCTS FEW035 FEW040CB BKN100 21/17 Q1019
Loading
Personal Weather Stations






























Interactive Weather Map
Tropical Storm Tracking
New forecast layout! Learn more

10-Day Weather Forecast

Advertisements
Track Severe Weather on mobile